Time;durP1;ratioP1;P1;durP2;ratioP2;P2;SDS_P1;SDS_P2;PMS_P1;PMS_P2;Temp;Humidity;BMP_temperature;BMP_pressure;BME280_temperature;BME280_humidity;BME280_pressure;Samples;Min_cycle;Max_cycle;Signal;HPM_P1;HPM_P2
2021/12/08 00:02:16;;;;;;;60.53;26.33;;;-0.10;99.90;;;;;;5013871;28;20389;-48
2021/12/08 00:04:42;;;;;;;61.45;26.83;;;0.00;99.90;;;;;;5013751;28;20378;-47
2021/12/08 00:07:09;;;;;;;65.72;29.00;;;0.00;99.90;;;;;;5013316;28;20032;-49
2021/12/08 00:09:48;;;;;;;69.82;28.08;;;0.00;99.90;;;;;;5013246;28;20390;-48
2021/12/08 00:15:00;;;;;;;67.95;28.95;;;0.00;99.90;;;;;;5003213;28;20036;-47
2021/12/08 00:17:27;;;;;;;65.63;28.13;;;0.00;99.90;;;;;;5012217;28;20477;-47
2021/12/08 00:19:52;;;;;;;75.40;29.08;;;0.00;99.90;;;;;;5013744;28;20034;-49
2021/12/08 00:22:18;;;;;;;73.53;29.42;;;0.00;99.90;;;;;;5012634;28;20125;-47
2021/12/08 00:24:44;;;;;;;70.22;28.65;;;-0.10;99.90;;;;;;5014816;28;20026;-45
2021/12/08 00:27:10;;;;;;;63.17;25.85;;;-0.10;99.90;;;;;;5015277;28;20366;-46
2021/12/08 00:29:36;;;;;;;61.30;28.05;;;-0.10;99.90;;;;;;5015105;28;20038;-49
2021/12/08 00:32:01;;;;;;;62.05;27.35;;;-0.10;99.90;;;;;;5015087;28;20037;-48
2021/12/08 00:34:27;;;;;;;70.40;29.40;;;-0.10;99.90;;;;;;5014935;28;20041;-46
2021/12/08 00:36:57;;;;;;;61.10;26.48;;;-0.10;99.90;;;;;;5015056;28;20425;-44
2021/12/08 00:39:23;;;;;;;65.75;26.08;;;-0.10;99.90;;;;;;5014121;28;20029;-45
2021/12/08 00:41:49;;;;;;;69.78;26.98;;;-0.10;99.90;;;;;;5015076;28;20041;-49
2021/12/08 00:44:14;;;;;;;68.85;27.55;;;-0.10;99.90;;;;;;5014930;28;20041;-45
2021/12/08 00:46:40;;;;;;;57.97;26.65;;;-0.10;99.90;;;;;;5014635;28;20137;-48
2021/12/08 00:49:07;;;;;;;61.88;25.98;;;-0.10;99.90;;;;;;5014604;28;20057;-45
2021/12/08 00:51:33;;;;;;;74.60;30.85;;;-0.10;99.90;;;;;;5014991;28;20026;-45
2021/12/08 00:53:59;;;;;;;72.15;27.88;;;0.00;99.90;;;;;;5013786;28;20056;-47
2021/12/08 00:56:25;;;;;;;68.47;28.92;;;-0.10;99.90;;;;;;5014740;28;20030;-47
2021/12/08 00:58:50;;;;;;;64.65;26.73;;;-0.10;99.90;;;;;;5014426;28;20367;-45
2021/12/08 01:01:17;;;;;;;65.68;28.25;;;-0.10;99.90;;;;;;5014543;28;20034;-47
2021/12/08 01:03:45;;;;;;;64.30;26.65;;;-0.20;99.90;;;;;;5014246;28;20061;-44
2021/12/08 01:06:10;;;;;;;55.92;25.98;;;-0.10;99.90;;;;;;5014760;28;20481;-46
2021/12/08 01:08:36;;;;;;;66.60;28.05;;;-0.20;99.90;;;;;;4995580;28;20122;-44
2021/12/08 01:11:06;;;;;;;64.90;24.98;;;-0.20;99.90;;;;;;5014506;28;20034;-45
2021/12/08 01:13:31;;;;;;;62.35;25.13;;;-0.20;99.90;;;;;;5014271;28;20029;-45
2021/12/08 01:15:58;;;;;;;57.95;25.65;;;-0.20;99.90;;;;;;5014080;28;20358;-48
2021/12/08 01:18:25;;;;;;;56.13;25.10;;;-0.20;99.90;;;;;;5014171;28;20026;-47
2021/12/08 01:20:52;;;;;;;65.22;27.17;;;-0.20;99.90;;;;;;5014312;28;20033;-45
2021/12/08 01:23:18;;;;;;;60.63;26.10;;;-0.20;99.90;;;;;;5013308;28;20044;-47
2021/12/08 01:25:44;;;;;;;54.20;24.25;;;-0.20;99.90;;;;;;5013789;28;20389;-47
2021/12/08 01:28:09;;;;;;;57.95;25.45;;;-0.30;99.90;;;;;;5013716;28;20116;-49
2021/12/08 01:30:35;;;;;;;63.00;26.27;;;-0.30;99.90;;;;;;5014079;28;20037;-50
2021/12/08 01:33:01;;;;;;;53.83;24.83;;;-0.30;99.90;;;;;;5014009;28;20030;-47
2021/12/08 01:35:27;;;;;;;57.95;26.60;;;-0.30;99.90;;;;;;5013866;28;20065;-47
2021/12/08 01:37:53;;;;;;;59.05;25.08;;;-0.40;99.90;;;;;;5012986;28;20022;-50
2021/12/08 01:40:19;;;;;;;54.40;25.40;;;-0.40;99.90;;;;;;5013715;28;20109;-48
2021/12/08 01:42:47;;;;;;;62.13;26.52;;;-0.40;99.90;;;;;;5013858;28;20117;-50
2021/12/08 01:48:06;;;;;;;61.22;26.10;;;-0.40;99.90;;;;;;5013936;28;20808;-51
2021/12/08 01:50:33;;;;;;;56.88;25.15;;;-0.40;99.90;;;;;;5013446;28;20048;-47
2021/12/08 01:52:58;;;;;;;55.90;25.98;;;-0.50;99.90;;;;;;5012710;28;20644;-48
2021/12/08 01:55:24;;;;;;;58.20;25.23;;;-0.50;99.90;;;;;;5013444;28;20112;-49
2021/12/08 01:57:49;;;;;;;56.40;25.23;;;-0.50;99.90;;;;;;5013574;28;20461;-50
2021/12/08 02:00:23;;;;;;;59.78;27.15;;;-0.50;99.90;;;;;;5013580;28;20029;-48
2021/12/08 02:02:49;;;;;;;62.75;26.85;;;-0.60;99.90;;;;;;5013519;28;20026;-45
2021/12/08 02:05:16;;;;;;;62.13;26.52;;;-0.60;99.90;;;;;;5013460;28;20038;-47
2021/12/08 02:07:42;;;;;;;57.45;24.88;;;-0.60;99.90;;;;;;5012322;28;20034;-48
2021/12/08 02:10:08;;;;;;;60.38;25.50;;;-0.60;99.90;;;;;;5013171;28;20461;-45
2021/12/08 02:12:37;;;;;;;54.17;23.88;;;-0.60;99.90;;;;;;5013508;28;20030;-47
2021/12/08 02:15:05;;;;;;;58.42;24.67;;;-0.50;99.90;;;;;;5013182;28;20030;-48
2021/12/08 02:17:30;;;;;;;56.20;25.90;;;-0.50;99.90;;;;;;5013360;28;20026;-45
2021/12/08 02:19:56;;;;;;;53.13;25.38;;;-0.50;99.90;;;;;;5012986;28;20045;-45
2021/12/08 02:22:21;;;;;;;56.65;26.85;;;-0.60;99.90;;;;;;5012402;28;20022;-46
2021/12/08 02:24:47;;;;;;;54.72;24.50;;;-0.50;99.90;;;;;;5012869;28;20045;-46
2021/12/08 02:27:13;;;;;;;62.58;27.17;;;-0.60;99.90;;;;;;5013156;28;20037;-49
2021/12/08 02:29:46;;;;;;;61.53;26.63;;;-0.60;99.90;;;;;;5013056;28;20124;-47
2021/12/08 02:32:31;;;;;;;54.30;25.15;;;-0.60;99.90;;;;;;5013228;28;20026;-45
2021/12/08 02:48:37;;;;;;;62.75;26.08;;;-0.60;99.90;;;;;;5012674;28;20032;-44
2021/12/08 02:51:03;;;;;;;54.42;25.73;;;-0.60;99.90;;;;;;5012882;28;20105;-44
2021/12/08 02:53:31;;;;;;;58.28;27.88;;;-0.60;99.90;;;;;;5011920;28;20161;-45
2021/12/08 02:55:57;;;;;;;54.40;26.02;;;-0.60;99.90;;;;;;5012366;28;20034;-46
2021/12/08 02:58:22;;;;;;;60.70;28.35;;;-0.60;99.90;;;;;;5012976;28;20473;-44
2021/12/08 03:00:56;;;;;;;56.45;27.23;;;-0.60;99.90;;;;;;5012611;28;20030;-46
2021/12/08 03:03:22;;;;;;;59.75;26.38;;;-0.50;99.90;;;;;;5012837;28;20069;-44
2021/12/08 03:05:47;;;;;;;56.40;25.40;;;-0.50;99.90;;;;;;5012457;28;20038;-44
2021/12/08 03:08:13;;;;;;;61.42;28.33;;;-0.50;99.90;;;;;;5008513;28;20033;-46
2021/12/08 03:10:43;;;;;;;59.05;27.23;;;-0.50;99.90;;;;;;5022545;28;20037;-48
2021/12/08 03:13:09;;;;;;;66.13;27.70;;;-0.50;99.90;;;;;;5012504;28;20030;-47
2021/12/08 03:15:37;;;;;;;59.70;26.25;;;-0.50;99.90;;;;;;5012453;28;20062;-45
2021/12/08 03:18:03;;;;;;;64.10;26.20;;;-0.50;99.90;;;;;;5012056;28;20477;-46
2021/12/08 03:20:43;;;;;;;64.53;29.85;;;-0.50;99.90;;;;;;5009053;28;20540;-49
2021/12/08 03:23:15;;;;;;;58.72;27.60;;;-0.50;99.90;;;;;;5011281;28;20160;-51
2021/12/08 03:25:42;;;;;;;55.70;26.10;;;-0.50;99.90;;;;;;5012530;28;20109;-50
2021/12/08 03:28:19;;;;;;;59.92;26.35;;;-0.40;99.90;;;;;;5012275;28;20033;-49
2021/12/08 03:31:20;;;;;;;61.58;27.83;;;-0.40;99.90;;;;;;5012254;28;20029;-48
2021/12/08 03:33:37;;;;;;;65.20;28.88;;;-0.40;99.90;;;;;;5009050;28;20057;-51
2021/12/08 03:36:04;;;;;;;64.30;28.13;;;-0.40;99.90;;;;;;5011922;28;20026;-49
2021/12/08 03:38:31;;;;;;;65.47;28.27;;;-0.40;99.90;;;;;;5011464;28;20049;-47
2021/12/08 03:40:59;;;;;;;52.47;25.33;;;-0.50;99.90;;;;;;5012075;28;20028;-44
2021/12/08 03:43:25;;;;;;;64.85;27.88;;;-0.40;99.90;;;;;;5012190;28;20025;-49
2021/12/08 03:45:54;;;;;;;61.33;28.92;;;-0.40;99.90;;;;;;5012059;28;20041;-47
2021/12/08 03:48:37;;;;;;;62.83;27.63;;;-0.40;99.90;;;;;;5012171;28;20042;-51
2021/12/08 03:51:03;;;;;;;64.70;27.17;;;-0.40;99.90;;;;;;5012927;28;20053;-47
2021/12/08 03:53:29;;;;;;;62.83;28.35;;;-0.40;99.90;;;;;;5014659;28;20033;-47
2021/12/08 03:55:55;;;;;;;54.40;24.08;;;-0.50;99.90;;;;;;5015566;28;20038;-51
2021/12/08 03:58:24;;;;;;;65.15;28.48;;;-0.50;99.90;;;;;;5015641;28;20026;-48
2021/12/08 04:00:51;;;;;;;66.20;28.63;;;-0.50;99.90;;;;;;5015389;28;20100;-52
2021/12/08 04:03:18;;;;;;;64.35;28.95;;;-0.50;99.90;;;;;;5015592;28;20037;-47
2021/12/08 04:05:51;;;;;;;64.40;27.88;;;-0.40;99.90;;;;;;5015443;28;20026;-47
2021/12/08 04:08:25;;;;;;;64.20;30.02;;;-0.40;99.90;;;;;;5014485;28;20436;-47
2021/12/08 04:10:52;;;;;;;67.32;30.23;;;-0.50;99.90;;;;;;5015226;28;20164;-47
2021/12/08 04:13:22;;;;;;;63.85;29.65;;;-0.50;99.90;;;;;;5015256;28;20385;-47
2021/12/08 04:15:48;;;;;;;69.70;30.63;;;-0.50;99.90;;;;;;5015314;28;20085;-46
2021/12/08 04:18:14;;;;;;;62.63;28.23;;;-0.40;99.90;;;;;;5015261;28;20472;-47
2021/12/08 04:20:48;;;;;;;69.63;31.02;;;-0.40;99.90;;;;;;5015211;28;20030;-47
2021/12/08 04:23:19;;;;;;;61.30;27.50;;;-0.40;99.90;;;;;;5013793;28;20026;-47
2021/12/08 04:25:49;;;;;;;63.92;27.17;;;-0.40;99.90;;;;;;5014869;28;20029;-46
2021/12/08 04:28:21;;;;;;;64.55;30.05;;;-0.40;99.90;;;;;;5014992;28;20042;-44
2021/12/08 04:31:01;;;;;;;58.08;26.58;;;-0.40;99.90;;;;;;5015181;28;20034;-48
2021/12/08 04:33:27;;;;;;;61.72;26.70;;;-0.40;99.90;;;;;;4997462;28;20052;-47
2021/12/08 04:35:54;;;;;;;53.00;24.65;;;-0.40;99.90;;;;;;5014989;28;20033;-47
2021/12/08 04:38:29;;;;;;;56.42;26.30;;;-0.40;99.90;;;;;;4996148;28;20030;-45
2021/12/08 04:41:03;;;;;;;57.25;25.55;;;-0.40;99.90;;;;;;5014859;28;20076;-46
2021/12/08 04:43:39;;;;;;;56.38;24.98;;;-0.40;99.90;;;;;;5014877;28;20018;-47
2021/12/08 05:05:38;;;;;;;55.05;25.75;;;-0.50;99.90;;;;;;5014338;28;20053;-52
2021/12/08 05:08:18;;;;;;;53.15;24.98;;;-0.50;99.90;;;;;;4995595;28;20397;-48
2021/12/08 05:10:44;;;;;;;56.80;22.98;;;-0.40;99.90;;;;;;5014220;28;20022;-47
2021/12/08 05:13:13;;;;;;;57.83;26.95;;;-0.40;99.90;;;;;;5014168;28;20017;-49
2021/12/08 05:15:42;;;;;;;56.30;25.65;;;-0.40;99.90;;;;;;5013983;28;20460;-47
2021/12/08 05:18:08;;;;;;;58.85;25.70;;;-0.40;99.90;;;;;;5013999;28;20028;-49
2021/12/08 05:20:39;;;;;;;53.03;24.88;;;-0.30;99.90;;;;;;5013882;28;20025;-49
2021/12/08 05:23:13;;;;;;;50.45;23.92;;;-0.40;99.90;;;;;;5012989;28;20102;-49
2021/12/08 05:25:40;;;;;;;53.53;23.77;;;-0.30;99.90;;;;;;5014154;28;20033;-49
2021/12/08 05:28:09;;;;;;;50.38;24.40;;;-0.30;99.90;;;;;;5013715;28;20396;-51
2021/12/08 05:30:40;;;;;;;48.67;23.88;;;-0.30;99.90;;;;;;5014006;28;20029;-46
2021/12/08 05:33:08;;;;;;;55.72;26.10;;;-0.30;99.90;;;;;;5013763;28;20053;-45
2021/12/08 05:35:33;;;;;;;52.33;24.67;;;-0.30;99.90;;;;;;5013973;28;20030;-49
2021/12/08 05:38:00;;;;;;;54.40;24.45;;;-0.30;99.90;;;;;;5012898;28;20481;-48
2021/12/08 05:40:35;;;;;;;55.30;24.77;;;-0.30;99.90;;;;;;5011442;28;20022;-47
2021/12/08 05:43:01;;;;;;;58.45;25.58;;;-0.30;99.90;;;;;;5013341;28;20069;-48
2021/12/08 05:45:26;;;;;;;58.45;25.50;;;-0.30;99.90;;;;;;5013710;28;20026;-51
2021/12/08 05:47:54;;;;;;;56.80;26.80;;;-0.40;99.90;;;;;;5013737;28;20037;-47
2021/12/08 05:50:35;;;;;;;52.55;25.30;;;-0.40;99.90;;;;;;5013603;28;20153;-47
2021/12/08 05:53:01;;;;;;;60.22;23.67;;;-0.40;99.90;;;;;;5009664;28;20030;-51
2021/12/08 05:55:27;;;;;;;53.45;24.63;;;-0.40;99.90;;;;;;5005128;28;20041;-50
2021/12/08 05:57:53;;;;;;;60.20;25.38;;;-0.40;99.90;;;;;;5013220;28;20377;-48
2021/12/08 06:00:28;;;;;;;52.47;25.35;;;-0.40;99.90;;;;;;5013642;28;20037;-45
2021/12/08 06:02:54;;;;;;;59.97;26.33;;;-0.40;99.90;;;;;;5013404;28;20021;-44
2021/12/08 06:05:20;;;;;;;56.17;24.35;;;-0.40;99.90;;;;;;5013452;28;20022;-46
2021/12/08 06:07:45;;;;;;;58.33;25.35;;;-0.40;99.90;;;;;;5011741;28;20048;-46
2021/12/08 06:10:17;;;;;;;52.30;25.17;;;-0.30;99.90;;;;;;5012894;28;20032;-46
2021/12/08 06:12:43;;;;;;;53.30;22.95;;;-0.30;99.90;;;;;;5013188;28;20062;-48
2021/12/08 06:15:09;;;;;;;51.53;24.95;;;-0.30;99.90;;;;;;5012430;28;20127;-49
2021/12/08 06:17:35;;;;;;;61.67;26.55;;;-0.30;99.90;;;;;;5013217;28;20026;-47
2021/12/08 06:20:02;;;;;;;51.97;24.63;;;-0.30;99.90;;;;;;5010792;28;20037;-46
2021/12/08 06:22:29;;;;;;;61.13;25.25;;;-0.30;99.90;;;;;;4993923;28;20033;-46
2021/12/08 06:24:54;;;;;;;59.50;25.00;;;-0.30;99.90;;;;;;5012869;28;20034;-45
2021/12/08 06:27:20;;;;;;;56.38;24.77;;;-0.30;99.90;;;;;;5012884;28;20030;-46
2021/12/08 06:29:48;;;;;;;55.15;25.02;;;-0.30;99.90;;;;;;5013132;28;20484;-44
2021/12/08 06:32:16;;;;;;;58.05;24.17;;;-0.30;99.90;;;;;;5012938;28;20029;-47
2021/12/08 06:34:46;;;;;;;44.97;22.42;;;-0.30;99.90;;;;;;5013041;28;20040;-44
2021/12/08 06:37:20;;;;;;;62.45;25.02;;;-0.30;99.90;;;;;;5011686;28;20381;-44
2021/12/08 06:40:10;;;;;;;50.45;22.38;;;-0.30;99.90;;;;;;5012736;28;20492;-46
2021/12/08 06:42:39;;;;;;;59.63;24.08;;;-0.20;99.90;;;;;;5012865;28;20050;-48
2021/12/08 06:45:08;;;;;;;60.10;23.42;;;-0.20;99.90;;;;;;5012659;28;20062;-46
2021/12/08 06:47:35;;;;;;;60.13;23.63;;;-0.20;99.90;;;;;;5012646;28;20018;-50
2021/12/08 06:50:09;;;;;;;52.67;22.20;;;-0.10;99.90;;;;;;4995159;28;20153;-43
2021/12/08 06:52:38;;;;;;;58.28;24.48;;;-0.10;99.90;;;;;;5011712;28;20037;-47
2021/12/08 06:55:27;;;;;;;57.53;23.77;;;-0.10;99.90;;;;;;5012569;28;20469;-46
2021/12/08 06:57:56;;;;;;;56.55;24.40;;;-0.10;99.90;;;;;;5012590;28;20045;-47
2021/12/08 07:01:11;;;;;;;56.90;24.30;;;-0.10;99.90;;;;;;5012732;28;20429;-46
2021/12/08 07:04:14;;;;;;;62.03;24.27;;;-0.10;99.90;;;;;;4994882;28;20041;-49
2021/12/08 07:06:59;;;;;;;69.40;24.65;;;-0.10;99.90;;;;;;5012590;28;20470;-48
2021/12/08 07:09:29;;;;;;;55.88;23.60;;;-0.10;99.90;;;;;;5012586;28;20129;-50
2021/12/08 07:11:59;;;;;;;53.35;23.88;;;-0.10;99.90;;;;;;4994854;28;20396;-46
2021/12/08 07:14:27;;;;;;;62.15;26.13;;;-0.10;99.90;;;;;;5012501;28;20064;-45
2021/12/08 07:16:58;;;;;;;63.53;25.95;;;-0.10;99.90;;;;;;5012307;28;20469;-47
2021/12/08 07:19:35;;;;;;;66.68;26.83;;;-0.10;99.90;;;;;;5012507;28;20026;-51
2021/12/08 07:22:05;;;;;;;66.82;26.17;;;0.00;99.90;;;;;;5011489;28;20466;-47
2021/12/08 07:24:35;;;;;;;59.75;23.08;;;0.00;99.90;;;;;;5012251;28;20033;-49
2021/12/08 07:27:09;;;;;;;64.88;26.67;;;0.00;99.90;;;;;;5014773;28;20121;-47
2021/12/08 07:29:39;;;;;;;68.60;28.13;;;0.00;99.90;;;;;;5016174;28;20105;-46
2021/12/08 07:32:33;;;;;;;65.60;26.08;;;0.00;99.90;;;;;;5016347;28;20018;-46
2021/12/08 07:35:08;;;;;;;64.63;25.60;;;0.00;99.90;;;;;;5013597;28;20045;-44
2021/12/08 07:37:35;;;;;;;61.78;25.45;;;0.00;99.90;;;;;;5014731;28;20381;-44
2021/12/08 07:40:09;;;;;;;59.10;26.42;;;0.00;99.90;;;;;;5016037;28;20543;-43
2021/12/08 07:42:41;;;;;;;60.60;27.10;;;0.00;99.90;;;;;;5015831;28;20041;-43
2021/12/08 07:45:12;;;;;;;59.58;25.95;;;0.00;99.90;;;;;;5016115;28;20387;-47
2021/12/08 07:47:40;;;;;;;60.30;25.98;;;0.00;99.90;;;;;;5015982;28;20461;-44
2021/12/08 07:50:12;;;;;;;64.50;24.77;;;0.00;99.90;;;;;;5015780;28;20046;-43
2021/12/08 07:52:43;;;;;;;61.10;25.55;;;-0.10;99.90;;;;;;5014985;28;20080;-44
2021/12/08 07:55:25;;;;;;;58.25;24.27;;;0.00;99.90;;;;;;4998967;28;20038;-45
2021/12/08 07:57:54;;;;;;;66.97;26.05;;;0.10;99.90;;;;;;4998295;28;20049;-43
2021/12/08 08:00:29;;;;;;;57.72;25.55;;;0.00;99.90;;;;;;5015507;28;20032;-46
2021/12/08 08:02:55;;;;;;;49.03;19.40;;;0.10;99.90;;;;;;5015709;28;20060;-43
2021/12/08 08:05:27;;;;;;;61.85;24.25;;;0.00;99.90;;;;;;5015691;28;20461;-44
2021/12/08 08:07:56;;;;;;;55.85;23.67;;;0.00;99.90;;;;;;5014683;28;20060;-44
2021/12/08 08:10:23;;;;;;;65.85;26.88;;;0.00;99.90;;;;;;5015489;28;20110;-44
2021/12/08 08:12:51;;;;;;;61.78;25.73;;;0.10;99.90;;;;;;5015440;28;20125;-46
2021/12/08 08:15:22;;;;;;;63.83;26.33;;;0.00;99.90;;;;;;5015272;28;20030;-44
2021/12/08 08:17:51;;;;;;;58.10;25.35;;;0.00;99.90;;;;;;5015515;28;20465;-46
2021/12/08 08:20:31;;;;;;;57.30;25.30;;;0.00;99.90;;;;;;5015472;28;20097;-46
2021/12/08 08:22:59;;;;;;;61.67;25.75;;;0.10;99.90;;;;;;5014458;28;20073;-44
2021/12/08 08:25:29;;;;;;;58.38;27.02;;;0.10;99.90;;;;;;5015271;28;20030;-47
2021/12/08 08:27:57;;;;;;;69.35;29.30;;;0.10;99.90;;;;;;5015144;28;20036;-48
2021/12/08 08:30:31;;;;;;;60.63;26.50;;;0.20;99.90;;;;;;4997769;28;20036;-45
2021/12/08 08:32:58;;;;;;;67.53;27.85;;;0.20;99.90;;;;;;5015146;28;20022;-47
2021/12/08 08:35:29;;;;;;;124.32;54.55;;;0.10;99.90;;;;;;4997497;28;20112;-46
2021/12/08 08:37:59;;;;;;;67.05;29.05;;;0.10;99.90;;;;;;4995556;28;20049;-48
2021/12/08 08:40:31;;;;;;;71.15;29.58;;;0.10;99.90;;;;;;5014944;28;20040;-47
2021/12/08 08:42:58;;;;;;;80.38;33.22;;;0.10;99.90;;;;;;5012256;28;20120;-50
2021/12/08 08:45:30;;;;;;;73.85;29.55;;;0.20;99.90;;;;;;5014838;28;20701;-45
2021/12/08 08:48:04;;;;;;;76.85;29.77;;;0.30;99.90;;;;;;5014855;28;20451;-45
2021/12/08 08:50:40;;;;;;;74.93;30.73;;;0.20;99.90;;;;;;4996959;28;20053;-47
2021/12/08 08:53:06;;;;;;;71.65;27.48;;;0.20;99.90;;;;;;5013832;28;20077;-49
2021/12/08 08:55:46;;;;;;;70.95;29.38;;;0.20;99.90;;;;;;5014547;28;20042;-42
2021/12/08 08:58:14;;;;;;;76.35;31.17;;;0.30;99.90;;;;;;5014496;28;20385;-47
2021/12/08 09:00:55;;;;;;;65.78;27.52;;;0.30;99.90;;;;;;5014670;28;20025;-47
2021/12/08 09:03:25;;;;;;;72.18;29.80;;;0.30;99.90;;;;;;5014221;28;20210;-44
2021/12/08 09:06:01;;;;;;;71.25;29.48;;;0.40;99.90;;;;;;5014710;28;20448;-47
2021/12/08 09:08:31;;;;;;;73.07;30.20;;;0.40;99.90;;;;;;5013481;28;20429;-44
2021/12/08 09:11:06;;;;;;;70.93;28.75;;;0.40;99.90;;;;;;4997094;28;20092;-43
2021/12/08 09:13:50;;;;;;;49.53;21.97;;;0.40;99.90;;;;;;5013717;28;20026;-46
2021/12/08 09:16:24;;;;;;;69.10;29.60;;;0.40;99.90;;;;;;5014395;28;20323;-46
2021/12/08 09:19:05;;;;;;;69.53;27.67;;;0.40;99.90;;;;;;5014141;28;20033;-42
2021/12/08 09:21:40;;;;;;;71.63;29.98;;;0.40;99.90;;;;;;5014262;28;20076;-47
2021/12/08 09:24:21;;;;;;;76.55;29.17;;;0.50;99.90;;;;;;5012478;28;20101;-44
2021/12/08 09:26:57;;;;;;;70.60;29.55;;;0.50;99.90;;;;;;5014065;28;20037;-46
2021/12/08 09:29:25;;;;;;;;;;;0.50;99.90;;;;;;5014478;28;20034;-45
2021/12/08 09:31:58;;;;;;;68.28;27.85;;;0.50;99.90;;;;;;5014146;28;19912;-43
2021/12/08 09:34:38;;;;;;;70.38;29.23;;;0.50;99.90;;;;;;4996292;28;20531;-43
2021/12/08 09:37:17;;;;;;;66.82;28.90;;;0.50;99.90;;;;;;5012990;28;20022;-44
2021/12/08 09:39:47;;;;;;;68.75;30.45;;;0.50;99.90;;;;;;5013724;28;20030;-42
2021/12/08 09:42:31;;;;;;;67.28;29.08;;;0.50;99.90;;;;;;5014007;28;20022;-43
2021/12/08 09:45:07;;;;;;;69.13;29.02;;;0.50;99.90;;;;;;5013531;28;20034;-48
2021/12/08 09:47:32;;;;;;;66.63;27.70;;;0.50;99.90;;;;;;5013856;28;20036;-43
2021/12/08 09:50:00;;;;;;;71.18;29.48;;;0.50;99.90;;;;;;5013394;28;20045;-44
2021/12/08 09:52:27;;;;;;;61.58;27.48;;;0.50;99.90;;;;;;5012837;28;20477;-43
2021/12/08 09:54:55;;;;;;;65.25;28.67;;;0.60;99.90;;;;;;5013514;28;20029;-43
2021/12/08 09:57:21;;;;;;;63.65;29.20;;;0.60;99.90;;;;;;5013413;28;20022;-43
2021/12/08 09:59:47;;;;;;;74.03;31.48;;;0.60;99.90;;;;;;5012056;28;20025;-46
2021/12/08 10:02:18;;;;;;;77.80;30.67;;;0.60;99.90;;;;;;5013616;28;20473;-43
2021/12/08 10:04:44;;;;;;;66.20;29.00;;;0.60;99.90;;;;;;5013309;28;20045;-45
2021/12/08 10:07:10;;;;;;;63.55;30.20;;;0.70;99.90;;;;;;5012362;28;20037;-43
2021/12/08 10:09:36;;;;;;;67.68;27.98;;;0.80;99.90;;;;;;5013140;28;20065;-43
2021/12/08 10:12:03;;;;;;;70.32;29.33;;;0.90;99.90;;;;;;5013407;28;20033;-44
2021/12/08 10:14:29;;;;;;;67.82;28.63;;;0.90;99.90;;;;;;5012913;28;20046;-46
2021/12/08 10:16:55;;;;;;;72.85;30.08;;;0.80;99.90;;;;;;5013189;28;20077;-45
2021/12/08 10:19:22;;;;;;;71.70;29.50;;;0.90;99.90;;;;;;5013240;28;20104;-43
2021/12/08 10:21:48;;;;;;;66.38;28.58;;;0.90;99.90;;;;;;5013133;28;20369;-45
2021/12/08 10:24:21;;;;;;;70.32;30.02;;;0.90;99.90;;;;;;5012291;28;20025;-45
2021/12/08 10:26:49;;;;;;;64.03;29.30;;;0.90;99.90;;;;;;5013065;28;20053;-43
2021/12/08 10:29:15;;;;;;;76.15;31.00;;;1.00;99.90;;;;;;5013059;28;20026;-43
2021/12/08 10:31:45;;;;;;;76.43;33.20;;;1.10;99.90;;;;;;5013118;28;20061;-45
2021/12/08 10:34:23;;;;;;;71.90;29.27;;;1.00;99.90;;;;;;5013006;28;20544;-45
2021/12/08 10:36:56;;;;;;;73.13;30.95;;;1.10;99.90;;;;;;5012434;28;20064;-45
2021/12/08 10:39:27;;;;;;;73.50;30.35;;;1.20;99.90;;;;;;5012791;28;20025;-46
2021/12/08 10:42:26;;;;;;;72.10;29.40;;;1.10;99.90;;;;;;5012953;28;20034;-45
2021/12/08 10:45:08;;;;;;;69.57;28.80;;;1.20;99.90;;;;;;5012560;28;20097;-47
2021/12/08 10:47:47;;;;;;;71.32;30.63;;;1.20;99.90;;;;;;5012472;28;20022;-43
2021/12/08 10:55:56;;;;;;;68.28;29.00;;;1.10;99.90;;;;;;5012972;28;20092;-45
2021/12/08 10:58:28;;;;;;;63.53;28.20;;;1.20;99.90;;;;;;4995230;28;20026;-44
2021/12/08 11:00:57;;;;;;;70.93;29.98;;;1.10;99.90;;;;;;5012117;28;20034;-45
2021/12/08 11:03:22;;;;;;;73.25;31.05;;;1.20;99.90;;;;;;5013005;28;20397;-43
2021/12/08 11:05:59;;;;;;;76.50;30.23;;;1.20;99.90;;;;;;5012518;28;20084;-47
2021/12/08 11:08:35;;;;;;;75.00;27.88;;;1.20;99.90;;;;;;5011686;28;20375;-44
2021/12/08 11:11:06;;;;;;;74.55;30.20;;;1.10;99.90;;;;;;5012654;28;20021;-44
2021/12/08 11:13:40;;;;;;;60.30;25.95;;;1.10;99.90;;;;;;5012596;28;20033;-45
2021/12/08 11:16:12;;;;;;;66.57;28.30;;;1.20;99.90;;;;;;5012493;28;20026;-44
2021/12/08 11:18:41;;;;;;;69.00;27.95;;;1.20;99.90;;;;;;5012335;28;20040;-45
2021/12/08 11:21:19;;;;;;;66.00;28.90;;;1.20;99.90;;;;;;5012686;28;20045;-43
2021/12/08 11:23:48;;;;;;;74.22;30.08;;;1.10;99.90;;;;;;5011472;28;20022;-43
2021/12/08 11:26:37;;;;;;;68.75;27.60;;;1.00;99.90;;;;;;5012685;28;20050;-45
2021/12/08 11:29:24;;;;;;;70.60;28.42;;;1.10;99.90;;;;;;5012484;28;20438;-43
2021/12/08 11:31:52;;;;;;;65.03;28.63;;;1.10;99.90;;;;;;5012200;28;20037;-43
2021/12/08 11:34:26;;;;;;;68.40;27.23;;;1.20;99.90;;;;;;5012343;28;20022;-44
2021/12/08 11:36:54;;;;;;;70.32;28.58;;;1.30;99.90;;;;;;5011566;28;20500;-47
2021/12/08 11:39:32;;;;;;;79.15;30.15;;;1.30;99.90;;;;;;5012387;28;20026;-43
2021/12/08 11:42:08;;;;;;;73.50;28.27;;;1.30;99.90;;;;;;5012390;28;20022;-45
2021/12/08 11:44:39;;;;;;;73.80;28.08;;;1.30;99.90;;;;;;5004505;28;20443;-45
2021/12/08 11:47:10;;;;;;;74.55;30.20;;;1.30;99.90;;;;;;5002970;28;20037;-43
2021/12/08 11:49:42;;;;;;;75.93;30.55;;;1.40;99.90;;;;;;5010143;28;20446;-43
2021/12/08 11:52:13;;;;;;;74.88;31.60;;;1.40;99.90;;;;;;5005948;28;20034;-45
2021/12/08 11:55:00;;;;;;;78.53;31.95;;;1.50;99.90;;;;;;5008213;28;20068;-43
2021/12/08 11:57:30;;;;;;;75.18;29.60;;;1.60;99.90;;;;;;5010324;28;20036;-45
2021/12/08 12:00:03;;;;;;;66.38;28.77;;;1.50;99.90;;;;;;5010308;28;20561;-46
2021/12/08 12:02:36;;;;;;;72.13;28.33;;;1.40;99.90;;;;;;5006168;28;20014;-43
2021/12/08 12:05:08;;;;;;;79.28;31.73;;;1.50;99.90;;;;;;5010412;28;20047;-45
2021/12/08 12:07:35;;;;;;;73.05;30.27;;;1.40;99.90;;;;;;5009461;28;20030;-45
2021/12/08 12:10:01;;;;;;;76.45;31.30;;;1.40;99.90;;;;;;5010241;28;20030;-45
2021/12/08 12:12:27;;;;;;;75.38;29.67;;;1.40;99.90;;;;;;5010325;28;20034;-46
2021/12/08 12:14:52;;;;;;;79.75;31.15;;;1.40;99.90;;;;;;5013629;28;20461;-48
2021/12/08 12:17:18;;;;;;;79.65;30.88;;;1.30;99.90;;;;;;5013490;28;20022;-46
2021/12/08 12:19:54;;;;;;;64.20;24.73;;;1.40;99.90;;;;;;5013522;28;20385;-44
2021/12/08 12:22:28;;;;;;;;;;;1.40;99.90;;;;;;4995459;28;20022;-46
2021/12/08 12:25:29;;;;;;;79.20;29.90;;;1.30;99.90;;;;;;5013489;28;20438;-44
2021/12/08 12:28:08;;;;;;;77.38;30.10;;;1.30;99.90;;;;;;5015061;28;20033;-43
2021/12/08 12:30:50;;;;;;;77.10;30.75;;;1.30;99.90;;;;;;5015245;28;20025;-45
2021/12/08 12:33:18;;;;;;;76.18;30.85;;;1.20;99.90;;;;;;5015211;28;20025;-44
2021/12/08 12:35:50;;;;;;;74.13;30.25;;;1.20;99.90;;;;;;5014900;28;20116;-47
2021/12/08 12:38:15;;;;;;;80.63;32.42;;;1.10;99.90;;;;;;5014359;28;20014;-46
2021/12/08 12:40:51;;;;;;;77.75;30.52;;;1.10;99.90;;;;;;5015025;28;20026;-43
2021/12/08 12:43:33;;;;;;;78.73;32.13;;;1.10;99.90;;;;;;5015147;28;20031;-45
2021/12/08 12:46:09;;;;;;;79.50;31.08;;;1.20;99.90;;;;;;5014903;28;20265;-43
2021/12/08 12:48:37;;;;;;;75.22;27.85;;;1.20;99.90;;;;;;5012454;28;20437;-42
2021/12/08 12:51:10;;;;;;;77.15;30.05;;;1.30;99.90;;;;;;5014541;28;20084;-47
2021/12/08 12:53:50;;;;;;;70.82;27.65;;;1.30;99.90;;;;;;5013938;28;20112;-48
2021/12/08 12:56:27;;;;;;;69.72;29.83;;;1.40;99.90;;;;;;5014744;28;20030;-44
2021/12/08 12:58:54;;;;;;;72.50;27.05;;;1.40;99.90;;;;;;5014433;28;20037;-46
2021/12/08 13:01:29;;;;;;;80.75;30.73;;;1.40;99.90;;;;;;5012590;28;20037;-45
2021/12/08 13:03:59;;;;;;;76.32;30.67;;;1.40;99.90;;;;;;5013705;28;20373;-43
2021/12/08 13:06:46;;;;;;;73.32;29.67;;;1.40;99.90;;;;;;5014652;28;20026;-43
2021/12/08 13:09:36;;;;;;;81.13;30.63;;;1.40;99.90;;;;;;5013825;28;20025;-46
2021/12/08 13:12:34;;;;;;;73.22;29.80;;;1.30;99.90;;;;;;5012054;28;20033;-46
2021/12/08 13:15:20;;;;;;;69.63;27.05;;;1.30;99.90;;;;;;5013764;28;20057;-45
2021/12/08 13:18:06;;;;;;;69.30;29.17;;;1.30;99.90;;;;;;5014036;28;20028;-46
2021/12/08 13:20:36;;;;;;;56.75;23.23;;;1.20;99.90;;;;;;5014337;28;20122;-43
2021/12/08 13:23:06;;;;;;;72.22;29.98;;;1.10;99.90;;;;;;5013287;28;20029;-43
2021/12/08 13:28:18;;;;;;;78.75;28.98;;;0.90;99.90;;;;;;5013890;28;20030;-44
2021/12/08 13:30:55;;;;;;;78.18;29.55;;;1.00;99.90;;;;;;5014150;28;20026;-45
2021/12/08 13:33:41;;;;;;;86.75;32.70;;;1.00;99.90;;;;;;5014021;28;20034;-42
2021/12/08 13:36:22;;;;;;;57.85;22.88;;;1.00;99.90;;;;;;4995672;28;20034;-43
2021/12/08 13:38:53;;;;;;;76.50;30.70;;;0.90;99.90;;;;;;5013181;28;20034;-44
2021/12/08 13:41:20;;;;;;;76.05;28.23;;;1.00;99.90;;;;;;5010190;28;20026;-44